PWSweather.com
Personal Weather Stations
Station Observations
OAK1E
Piedmont Ave District, Oakland, CA 94611

Piedmont Ave DistrictOakland, CA 94611

Lat: 37.832205, Lon: -122.250229

Elevation: 176

Station Type: Davis Vantage Pro 2

http://www.mayacamaswx.com/Oakland1E/Oakland1E.htm

Latest ConditionsUpdated 9:50:00 AM PDT Monday, Jul 27, 2015
Currently Today's Max Today's Min Today's Average
Temperature 64.8°F18.2°C 64.8°F18.2°C 55.7°F13.2°C 58.7°F14.8°C
Dew Point 58.8°F14.9°C 59.5°F15.3°C 54.0°F12.2°C 56.3°F13.5°C
Winds Calm Calm Calm SCalm S - Calm Calm
Wind Gusts -- 1.0 mph1.6 kmh - -
Humidity 81% 96% 81% 92%
Pressure 29.96 in1014.6 mb 29.96 in1014.6 mb 29.90 in1012.5 mb -
Hour Temp Dew Point Humidity Winds Wind Gusts Pressure Precip Precip Rate Daily Precip Total
09:50 AM 64.8°F18.2°C 58.8°F14.9°C 81% Calm Calm -- 29.96 in1014.6 mb - 0.00 in0.0 mm 0.00 in0.0 mm
09:40 AM 64.8°F18.2°C 58.8°F14.9°C 81% Calm Calm -- 29.96 in1014.6 mb - 0.00 in0.0 mm 0.00 in0.0 mm
09:30 AM 64.8°F18.2°C 58.8°F14.9°C 81% Calm Calm -- 29.96 in1014.6 mb - 0.00 in0.0 mm 0.00 in0.0 mm
09:20 AM 64.8°F18.2°C 58.8°F14.9°C 81% Calm Calm -- 29.96 in1014.6 mb - 0.00 in0.0 mm 0.00 in0.0 mm
09:10 AM 64.2°F17.9°C 58.9°F14.9°C 83% Calm Calm -- 29.96 in1014.6 mb - 0.00 in0.0 mm 0.00 in0.0 mm
09:00 AM 63.4°F17.4°C 59.5°F15.3°C 87% Calm Calm -- 29.96 in1014.6 mb - 0.00 in0.0 mm 0.00 in0.0 mm
08:50 AM 62.4°F16.9°C 59.4°F15.2°C 90% Calm Calm -- 29.96 in1014.6 mb - 0.00 in0.0 mm 0.00 in0.0 mm
08:40 AM 61.4°F16.3°C 59.1°F15.1°C 92% Calm Calm -- 29.96 in1014.6 mb - 0.00 in0.0 mm 0.00 in0.0 mm
08:30 AM 60.6°F15.9°C 58.9°F14.9°C 94% Calm Calm -- 29.96 in1014.6 mb - 0.00 in0.0 mm 0.00 in0.0 mm
08:20 AM 60.0°F15.6°C 58.6°F14.8°C 95% Calm Calm -- 29.96 in1014.6 mb - 0.00 in0.0 mm 0.00 in0.0 mm
08:10 AM 59.5°F15.3°C 58.1°F14.5°C 95% Calm Calm -- 29.96 in1014.6 mb - 0.00 in0.0 mm 0.00 in0.0 mm
08:00 AM 59.0°F15.0°C 57.9°F14.4°C 96% Calm Calm -- 29.96 in1014.6 mb - 0.00 in0.0 mm 0.00 in0.0 mm
07:50 AM 59.0°F15.0°C 57.9°F14.4°C 96% Calm Calm -- 29.95 in1014.2 mb - 0.00 in0.0 mm 0.00 in0.0 mm
07:40 AM 58.5°F14.7°C 57.3°F14.1°C 96% Calm Calm -- 29.95 in1014.2 mb - 0.00 in0.0 mm 0.00 in0.0 mm
07:30 AM 57.8°F14.3°C 56.7°F13.7°C 96% Calm Calm -- 29.95 in1014.2 mb - 0.00 in0.0 mm 0.00 in0.0 mm
07:20 AM 57.3°F14.1°C 56.2°F13.4°C 96% Calm Calm -- 29.95 in1014.2 mb - 0.00 in0.0 mm 0.00 in0.0 mm
07:10 AM 56.8°F13.8°C 55.7°F13.2°C 96% Calm Calm -- 29.94 in1013.9 mb - 0.00 in0.0 mm 0.00 in0.0 mm
07:00 AM 56.4°F13.6°C 55.0°F12.8°C 95% Calm Calm -- 29.94 in1013.9 mb - 0.00 in0.0 mm 0.00 in0.0 mm
06:50 AM 56.2°F13.4°C 54.8°F12.7°C 95% Calm Calm -- 29.94 in1013.9 mb - 0.00 in0.0 mm 0.00 in0.0 mm
06:40 AM 56.0°F13.3°C 54.6°F12.6°C 95% Calm Calm -- 29.94 in1013.9 mb - 0.00 in0.0 mm 0.00 in0.0 mm
06:30 AM 56.1°F13.4°C 54.7°F12.6°C 95% Calm Calm -- 29.93 in1013.5 mb - 0.00 in0.0 mm 0.00 in0.0 mm
06:20 AM 56.1°F13.4°C 54.7°F12.6°C 95% Calm Calm -- 29.93 in1013.5 mb - 0.00 in0.0 mm 0.00 in0.0 mm
06:10 AM 55.9°F13.3°C 54.5°F12.5°C 95% Calm Calm -- 29.93 in1013.5 mb - 0.00 in0.0 mm 0.00 in0.0 mm
06:00 AM 55.7°F13.2°C 54.0°F12.2°C 94% Calm Calm -- 29.92 in1013.2 mb - 0.00 in0.0 mm 0.00 in0.0 mm
05:50 AM 55.9°F13.3°C 54.2°F12.3°C 94% Calm Calm -- 29.92 in1013.2 mb - 0.00 in0.0 mm 0.00 in0.0 mm
05:40 AM 56.1°F13.4°C 54.4°F12.4°C 94% Calm Calm -- 29.92 in1013.2 mb - 0.00 in0.0 mm 0.00 in0.0 mm
05:30 AM 56.3°F13.5°C 54.6°F12.6°C 94% Calm Calm -- 29.91 in1012.9 mb - 0.00 in0.0 mm 0.00 in0.0 mm
05:20 AM 56.5°F13.6°C 54.8°F12.7°C 94% Calm Calm -- 29.91 in1012.9 mb - 0.00 in0.0 mm 0.00 in0.0 mm
05:10 AM 56.6°F13.7°C 54.9°F12.7°C 94% Calm Calm -- 29.91 in1012.9 mb - 0.00 in0.0 mm 0.00 in0.0 mm
05:00 AM 56.8°F13.8°C 55.1°F12.8°C 94% Calm Calm -- 29.91 in1012.9 mb - 0.00 in0.0 mm 0.00 in0.0 mm
04:50 AM 57.0°F13.9°C 55.0°F12.8°C 93% Calm Calm -- 29.91 in1012.9 mb - 0.00 in0.0 mm 0.00 in0.0 mm
04:40 AM 57.1°F13.9°C 55.1°F12.8°C 93% Calm Calm -- 29.91 in1012.9 mb - 0.00 in0.0 mm 0.00 in0.0 mm
04:30 AM 57.1°F13.9°C 55.1°F12.8°C 93% Calm Calm -- 29.91 in1012.9 mb - 0.00 in0.0 mm 0.00 in0.0 mm
04:20 AM 57.2°F14.0°C 55.2°F12.9°C 93% Calm Calm -- 29.91 in1012.9 mb - 0.00 in0.0 mm 0.00 in0.0 mm
04:10 AM 57.4°F14.1°C 55.4°F13.0°C 93% Calm Calm -- 29.91 in1012.9 mb - 0.00 in0.0 mm 0.00 in0.0 mm
04:00 AM 57.6°F14.2°C 55.3°F12.9°C 92% Calm Calm -- 29.91 in1012.9 mb - 0.00 in0.0 mm 0.00 in0.0 mm
03:50 AM 57.8°F14.3°C 55.5°F13.1°C 92% Calm Calm -- 29.91 in1012.9 mb - 0.00 in0.0 mm 0.00 in0.0 mm
03:40 AM 58.0°F14.4°C 55.7°F13.2°C 92% Calm Calm -- 29.91 in1012.9 mb - 0.00 in0.0 mm 0.00 in0.0 mm
03:30 AM 58.2°F14.6°C 55.9°F13.3°C 92% Calm Calm -- 29.91 in1012.9 mb - 0.00 in0.0 mm 0.00 in0.0 mm
03:20 AM 58.2°F14.6°C 55.9°F13.3°C 92% Calm Calm -- 29.90 in1012.5 mb - 0.00 in0.0 mm 0.00 in0.0 mm
03:10 AM 58.2°F14.6°C 55.9°F13.3°C 92% Calm Calm -- 29.91 in1012.9 mb - 0.00 in0.0 mm 0.00 in0.0 mm
03:00 AM 58.3°F14.6°C 56.0°F13.3°C 92% Calm Calm -- 29.91 in1012.9 mb - 0.00 in0.0 mm 0.00 in0.0 mm
02:50 AM 58.5°F14.7°C 55.9°F13.3°C 91% Calm Calm -- 29.91 in1012.9 mb - 0.00 in0.0 mm 0.00 in0.0 mm
02:40 AM 58.6°F14.8°C 56.0°F13.3°C 91% Calm Calm -- 29.91 in1012.9 mb - 0.00 in0.0 mm 0.00 in0.0 mm
02:30 AM 58.6°F14.8°C 56.3°F13.5°C 92% Calm Calm -- 29.91 in1012.9 mb - 0.00 in0.0 mm 0.00 in0.0 mm
02:20 AM 58.6°F14.8°C 56.3°F13.5°C 92% Calm Calm -- 29.90 in1012.5 mb - 0.00 in0.0 mm 0.00 in0.0 mm
02:10 AM 58.6°F14.8°C 56.0°F13.3°C 91% Calm Calm -- 29.91 in1012.9 mb - 0.00 in0.0 mm 0.00 in0.0 mm
02:00 AM 58.7°F14.8°C 56.1°F13.4°C 91% Calm Calm -- 29.91 in1012.9 mb - 0.00 in0.0 mm 0.00 in0.0 mm
01:50 AM 58.8°F14.9°C 56.2°F13.4°C 91% Calm Calm -- 29.91 in1012.9 mb - 0.00 in0.0 mm 0.00 in0.0 mm
01:40 AM 58.9°F14.9°C 56.2°F13.4°C 91% Calm Calm -- 29.91 in1012.9 mb - 0.00 in0.0 mm 0.00 in0.0 mm
01:30 AM 58.9°F14.9°C 56.3°F13.5°C 91% Calm Calm 1.0 mph1.6 kmh 29.91 in1012.9 mb - 0.00 in0.0 mm 0.00 in0.0 mm
01:20 AM 59.0°F15.0°C 56.1°F13.4°C 90% Calm Calm -- 29.91 in1012.9 mb - 0.00 in0.0 mm 0.00 in0.0 mm
01:10 AM 59.0°F15.0°C 56.1°F13.4°C 90% Calm Calm -- 29.91 in1012.9 mb - 0.00 in0.0 mm 0.00 in0.0 mm
01:00 AM 59.1°F15.1°C 56.2°F13.4°C 90% Calm Calm -- 29.91 in1012.9 mb - 0.00 in0.0 mm 0.00 in0.0 mm
12:50 AM 59.4°F15.2°C 56.5°F13.6°C 90% Calm Calm -- 29.91 in1012.9 mb - 0.00 in0.0 mm 0.00 in0.0 mm
12:40 AM 59.5°F15.3°C 56.3°F13.5°C 89% Calm Calm -- 29.91 in1012.9 mb - 0.00 in0.0 mm 0.00 in0.0 mm
12:30 AM 59.6°F15.3°C 56.4°F13.6°C 89% Calm Calm -- 29.91 in1012.9 mb - 0.00 in0.0 mm 0.00 in0.0 mm
12:20 AM 59.6°F15.3°C 56.4°F13.6°C 89% Calm Calm -- 29.91 in1012.9 mb - 0.00 in0.0 mm 0.00 in0.0 mm
12:10 AM 59.5°F15.3°C 56.3°F13.5°C 89% Calm Calm -- 29.91 in1012.9 mb - 0.00 in0.0 mm 0.00 in0.0 mm
12:00 AM 59.5°F15.3°C 56.3°F13.5°C 89% Calm Calm -- 29.91 in1012.9 mb - 0.00 in0.0 mm 0.00 in0.0 mm